Accueil
METAR-TAF:

METAR-TAF

Aéroports :

Aéroport d'Užice-Ponikve

Užice, Serbie

latitude: 43-53-56N, longitude: 19-41-52E, altitude: 904 m

Observation

Le bulletin a été fait il y a 27 minutes, à 08:30 UTC
Vent 6 kt de est/sud-est, variant entre est/nord-est et sud
Température 8°C
Humidité 61%
Pression 1011 hPa
Visibilité 10 km ou plus
pas de nuages en-dessous de 1500 mètres et pas de cumulonimbus.

METAR: LYUZ 050830Z 11006KT 070V180 CAVOK 08/01 Q1011

Heure: 09:57 (08:57 UTC)

Prévision

Le bulletin a été fait il y a 2 heures et 32 minutes, à 06:25 UTC
Prévision valable du 05 à 06 UTC au 06 à 06 UTC
Vent 8 kt de est/sud-est
Visibilité 10 km ou plus
pas de nuages en-dessous de 1500 mètres et pas de cumulonimbus.
Temporairement
du 05 à 06 UTC au 05 à 15 UTC
Vent 15 kt de est/sud-est avec des rafales jusqu'à 25 kt

TAF: LYUZ 050625Z 0506/0606 11008KT CAVOK TX11/0513Z TN06/0605Z TEMPO 0506/0515 11015G25KT

Observations et prévisions météorologiques de plus de 4000 aéroports (messages METAR et TAF).

Les stations disponibles sont représentées par des disques jaunes et rouges sur la carte.

Passer la souris dessus pour voir le nom de la station.

Cliquer dessus pour voir les observations et prévisions météorologiques.

Pour changer de carte: cliquez sur les boutons verts avec une croix noire pour zoomer, sur le bouton vert avec un tiret pour effectuer un zoom arrière, ou sur les flèches vertes pour les cartes adjacentes.


METAR-TAF: